sensor_id;sensor_type;location;lat;lon;timestamp;P1;durP1;ratioP1;P2;durP2;ratioP2
8895;SDS011;4484;48.928;10.066;2022-10-31T00:00:43;2.97;;;2.40;;
8895;SDS011;4484;48.928;10.066;2022-10-31T00:03:10;6.33;;;3.23;;
8895;SDS011;4484;48.928;10.066;2022-10-31T00:05:40;3.57;;;2.33;;
8895;SDS011;4484;48.928;10.066;2022-10-31T00:08:08;2.97;;;2.17;;
8895;SDS011;4484;48.928;10.066;2022-10-31T00:10:37;3.07;;;2.23;;
8895;SDS011;4484;48.928;10.066;2022-10-31T00:13:05;5.73;;;2.50;;
8895;SDS011;4484;48.928;10.066;2022-10-31T00:15:33;2.67;;;2.27;;
8895;SDS011;4484;48.928;10.066;2022-10-31T00:18:03;4.33;;;1.97;;
8895;SDS011;4484;48.928;10.066;2022-10-31T00:20:32;3.20;;;2.23;;
8895;SDS011;4484;48.928;10.066;2022-10-31T00:22:59;2.53;;;1.87;;
8895;SDS011;4484;48.928;10.066;2022-10-31T00:25:28;3.70;;;1.90;;
8895;SDS011;4484;48.928;10.066;2022-10-31T00:27:58;3.43;;;1.93;;
8895;SDS011;4484;48.928;10.066;2022-10-31T00:30:26;3.87;;;2.30;;
8895;SDS011;4484;48.928;10.066;2022-10-31T00:32:53;4.77;;;2.40;;
8895;SDS011;4484;48.928;10.066;2022-10-31T00:35:20;2.77;;;1.90;;
8895;SDS011;4484;48.928;10.066;2022-10-31T00:37:46;3.33;;;2.17;;
8895;SDS011;4484;48.928;10.066;2022-10-31T00:40:13;3.93;;;2.50;;
8895;SDS011;4484;48.928;10.066;2022-10-31T00:42:40;3.67;;;2.03;;
8895;SDS011;4484;48.928;10.066;2022-10-31T00:45:11;3.93;;;2.43;;
8895;SDS011;4484;48.928;10.066;2022-10-31T00:47:37;3.23;;;2.00;;
8895;SDS011;4484;48.928;10.066;2022-10-31T00:50:05;3.10;;;2.07;;
8895;SDS011;4484;48.928;10.066;2022-10-31T00:52:32;2.10;;;1.60;;
8895;SDS011;4484;48.928;10.066;2022-10-31T00:54:59;2.20;;;1.70;;
8895;SDS011;4484;48.928;10.066;2022-10-31T00:57:26;4.20;;;2.20;;
8895;SDS011;4484;48.928;10.066;2022-10-31T00:59:53;1.90;;;1.67;;
8895;SDS011;4484;48.928;10.066;2022-10-31T01:02:20;4.23;;;2.10;;
8895;SDS011;4484;48.928;10.066;2022-10-31T01:04:48;3.53;;;2.10;;
8895;SDS011;4484;48.928;10.066;2022-10-31T01:07:14;3.30;;;2.17;;
8895;SDS011;4484;48.928;10.066;2022-10-31T01:09:43;4.73;;;2.50;;
8895;SDS011;4484;48.928;10.066;2022-10-31T01:12:10;4.03;;;2.63;;
8895;SDS011;4484;48.928;10.066;2022-10-31T01:14:42;5.67;;;2.57;;
8895;SDS011;4484;48.928;10.066;2022-10-31T01:17:10;4.60;;;2.70;;
8895;SDS011;4484;48.928;10.066;2022-10-31T01:19:38;4.13;;;2.73;;
8895;SDS011;4484;48.928;10.066;2022-10-31T01:22:05;3.20;;;2.57;;
8895;SDS011;4484;48.928;10.066;2022-10-31T01:24:32;4.20;;;3.03;;
8895;SDS011;4484;48.928;10.066;2022-10-31T01:27:00;3.97;;;2.47;;
8895;SDS011;4484;48.928;10.066;2022-10-31T01:29:31;3.60;;;2.40;;
8895;SDS011;4484;48.928;10.066;2022-10-31T01:31:58;3.40;;;2.70;;
8895;SDS011;4484;48.928;10.066;2022-10-31T01:34:25;3.03;;;2.47;;
8895;SDS011;4484;48.928;10.066;2022-10-31T01:36:52;3.50;;;2.00;;
8895;SDS011;4484;48.928;10.066;2022-10-31T01:39:20;3.17;;;2.30;;
8895;SDS011;4484;48.928;10.066;2022-10-31T01:41:48;4.23;;;2.47;;
8895;SDS011;4484;48.928;10.066;2022-10-31T01:49:18;4.97;;;2.73;;
8895;SDS011;4484;48.928;10.066;2022-10-31T01:51:54;3.47;;;2.70;;
8895;SDS011;4484;48.928;10.066;2022-10-31T01:54:26;4.57;;;2.70;;
8895;SDS011;4484;48.928;10.066;2022-10-31T01:56:57;3.53;;;2.50;;
8895;SDS011;4484;48.928;10.066;2022-10-31T01:59:28;2.70;;;2.07;;
8895;SDS011;4484;48.928;10.066;2022-10-31T02:01:56;3.13;;;2.00;;
8895;SDS011;4484;48.928;10.066;2022-10-31T02:04:25;2.80;;;2.00;;
8895;SDS011;4484;48.928;10.066;2022-10-31T02:06:58;2.90;;;2.30;;
8895;SDS011;4484;48.928;10.066;2022-10-31T02:09:30;3.23;;;2.27;;
8895;SDS011;4484;48.928;10.066;2022-10-31T02:12:00;3.10;;;2.67;;
8895;SDS011;4484;48.928;10.066;2022-10-31T02:14:29;3.93;;;2.47;;
8895;SDS011;4484;48.928;10.066;2022-10-31T02:16:57;3.50;;;2.10;;
8895;SDS011;4484;48.928;10.066;2022-10-31T02:19:30;3.17;;;2.30;;
8895;SDS011;4484;48.928;10.066;2022-10-31T02:22:16;4.67;;;2.30;;
8895;SDS011;4484;48.928;10.066;2022-10-31T02:33:23;3.57;;;2.37;;
8895;SDS011;4484;48.928;10.066;2022-10-31T02:38:56;4.73;;;2.63;;
8895;SDS011;4484;48.928;10.066;2022-10-31T02:47:05;6.30;;;2.80;;
8895;SDS011;4484;48.928;10.066;2022-10-31T02:52:21;3.57;;;2.30;;
8895;SDS011;4484;48.928;10.066;2022-10-31T02:54:51;2.40;;;2.10;;
8895;SDS011;4484;48.928;10.066;2022-10-31T02:57:20;2.83;;;1.87;;
8895;SDS011;4484;48.928;10.066;2022-10-31T02:59:58;3.23;;;1.90;;
8895;SDS011;4484;48.928;10.066;2022-10-31T03:02:34;3.00;;;2.23;;
8895;SDS011;4484;48.928;10.066;2022-10-31T03:07:47;2.17;;;1.80;;
8895;SDS011;4484;48.928;10.066;2022-10-31T03:10:56;2.57;;;1.73;;
8895;SDS011;4484;48.928;10.066;2022-10-31T03:13:34;2.73;;;2.10;;
8895;SDS011;4484;48.928;10.066;2022-10-31T03:16:12;2.43;;;1.80;;
8895;SDS011;4484;48.928;10.066;2022-10-31T03:21:22;5.13;;;2.80;;
8895;SDS011;4484;48.928;10.066;2022-10-31T03:24:11;3.17;;;2.43;;
8895;SDS011;4484;48.928;10.066;2022-10-31T03:26:41;4.40;;;2.53;;
8895;SDS011;4484;48.928;10.066;2022-10-31T03:29:15;4.70;;;2.77;;
8895;SDS011;4484;48.928;10.066;2022-10-31T03:31:51;4.03;;;2.03;;
8895;SDS011;4484;48.928;10.066;2022-10-31T03:34:20;4.40;;;2.37;;
8895;SDS011;4484;48.928;10.066;2022-10-31T03:36:49;4.80;;;2.27;;
8895;SDS011;4484;48.928;10.066;2022-10-31T03:39:19;3.20;;;2.40;;
8895;SDS011;4484;48.928;10.066;2022-10-31T03:42:10;4.10;;;2.37;;
8895;SDS011;4484;48.928;10.066;2022-10-31T03:44:37;3.53;;;2.43;;
8895;SDS011;4484;48.928;10.066;2022-10-31T03:47:07;4.83;;;2.90;;
8895;SDS011;4484;48.928;10.066;2022-10-31T03:49:34;4.77;;;2.97;;
8895;SDS011;4484;48.928;10.066;2022-10-31T03:57:19;5.60;;;3.20;;
8895;SDS011;4484;48.928;10.066;2022-10-31T03:59:58;5.17;;;3.10;;
8895;SDS011;4484;48.928;10.066;2022-10-31T04:02:45;5.90;;;2.97;;
8895;SDS011;4484;48.928;10.066;2022-10-31T04:05:17;5.50;;;3.00;;
8895;SDS011;4484;48.928;10.066;2022-10-31T04:07:46;5.03;;;2.73;;
8895;SDS011;4484;48.928;10.066;2022-10-31T04:10:16;5.70;;;3.50;;
8895;SDS011;4484;48.928;10.066;2022-10-31T04:12:47;3.70;;;2.87;;
8895;SDS011;4484;48.928;10.066;2022-10-31T04:15:24;5.10;;;3.03;;
8895;SDS011;4484;48.928;10.066;2022-10-31T04:17:53;6.00;;;3.63;;
8895;SDS011;4484;48.928;10.066;2022-10-31T04:20:37;4.30;;;3.30;;
8895;SDS011;4484;48.928;10.066;2022-10-31T04:23:17;9.57;;;4.47;;
8895;SDS011;4484;48.928;10.066;2022-10-31T04:25:47;5.93;;;3.93;;
8895;SDS011;4484;48.928;10.066;2022-10-31T04:28:15;3.90;;;3.30;;
8895;SDS011;4484;48.928;10.066;2022-10-31T04:30:48;6.27;;;3.37;;
8895;SDS011;4484;48.928;10.066;2022-10-31T04:33:15;5.57;;;2.93;;
8895;SDS011;4484;48.928;10.066;2022-10-31T04:35:44;5.03;;;2.93;;
8895;SDS011;4484;48.928;10.066;2022-10-31T04:38:11;4.73;;;3.03;;
8895;SDS011;4484;48.928;10.066;2022-10-31T04:40:39;3.83;;;2.83;;
8895;SDS011;4484;48.928;10.066;2022-10-31T04:43:28;4.57;;;2.63;;
8895;SDS011;4484;48.928;10.066;2022-10-31T04:45:58;5.83;;;2.80;;
8895;SDS011;4484;48.928;10.066;2022-10-31T04:48:25;3.37;;;2.53;;
8895;SDS011;4484;48.928;10.066;2022-10-31T04:50:52;4.47;;;2.63;;
8895;SDS011;4484;48.928;10.066;2022-10-31T04:53:19;5.43;;;2.60;;
8895;SDS011;4484;48.928;10.066;2022-10-31T04:56:09;3.93;;;2.50;;
8895;SDS011;4484;48.928;10.066;2022-10-31T04:58:40;4.60;;;3.07;;
8895;SDS011;4484;48.928;10.066;2022-10-31T05:01:09;4.63;;;3.00;;
8895;SDS011;4484;48.928;10.066;2022-10-31T05:03:36;4.53;;;2.90;;
8895;SDS011;4484;48.928;10.066;2022-10-31T05:06:06;5.00;;;2.50;;
8895;SDS011;4484;48.928;10.066;2022-10-31T05:08:34;5.33;;;2.50;;
8895;SDS011;4484;48.928;10.066;2022-10-31T05:11:04;4.17;;;2.57;;
8895;SDS011;4484;48.928;10.066;2022-10-31T05:13:32;4.63;;;2.30;;
8895;SDS011;4484;48.928;10.066;2022-10-31T05:16:12;3.73;;;2.33;;
8895;SDS011;4484;48.928;10.066;2022-10-31T05:19:08;5.33;;;2.63;;
8895;SDS011;4484;48.928;10.066;2022-10-31T05:21:53;2.50;;;2.03;;
8895;SDS011;4484;48.928;10.066;2022-10-31T05:24:22;2.97;;;2.20;;
8895;SDS011;4484;48.928;10.066;2022-10-31T05:26:51;4.93;;;2.63;;
8895;SDS011;4484;48.928;10.066;2022-10-31T05:29:18;4.70;;;2.80;;
8895;SDS011;4484;48.928;10.066;2022-10-31T05:31:44;3.70;;;2.60;;
8895;SDS011;4484;48.928;10.066;2022-10-31T05:34:31;4.60;;;3.00;;
8895;SDS011;4484;48.928;10.066;2022-10-31T05:37:24;5.10;;;2.93;;
8895;SDS011;4484;48.928;10.066;2022-10-31T05:39:51;4.07;;;2.60;;
8895;SDS011;4484;48.928;10.066;2022-10-31T05:42:19;3.73;;;2.90;;
8895;SDS011;4484;48.928;10.066;2022-10-31T05:44:46;4.87;;;2.70;;
8895;SDS011;4484;48.928;10.066;2022-10-31T05:47:21;5.67;;;3.43;;
8895;SDS011;4484;48.928;10.066;2022-10-31T05:50:11;4.87;;;3.50;;
8895;SDS011;4484;48.928;10.066;2022-10-31T05:52:58;5.20;;;3.30;;
8895;SDS011;4484;48.928;10.066;2022-10-31T05:55:32;3.40;;;3.10;;
8895;SDS011;4484;48.928;10.066;2022-10-31T05:58:12;4.27;;;2.80;;
8895;SDS011;4484;48.928;10.066;2022-10-31T06:00:44;4.13;;;3.13;;
8895;SDS011;4484;48.928;10.066;2022-10-31T06:03:11;4.60;;;3.37;;
8895;SDS011;4484;48.928;10.066;2022-10-31T06:05:45;3.97;;;2.97;;
8895;SDS011;4484;48.928;10.066;2022-10-31T06:08:20;4.07;;;2.90;;
8895;SDS011;4484;48.928;10.066;2022-10-31T06:10:48;5.73;;;2.60;;
8895;SDS011;4484;48.928;10.066;2022-10-31T06:13:20;3.77;;;2.43;;
8895;SDS011;4484;48.928;10.066;2022-10-31T06:15:55;3.33;;;2.67;;
8895;SDS011;4484;48.928;10.066;2022-10-31T06:18:26;3.87;;;2.60;;
8895;SDS011;4484;48.928;10.066;2022-10-31T06:20:53;3.27;;;2.40;;
8895;SDS011;4484;48.928;10.066;2022-10-31T06:23:21;5.03;;;2.90;;
8895;SDS011;4484;48.928;10.066;2022-10-31T06:25:54;4.03;;;2.63;;
8895;SDS011;4484;48.928;10.066;2022-10-31T06:28:21;5.00;;;3.20;;
8895;SDS011;4484;48.928;10.066;2022-10-31T06:30:52;6.57;;;2.80;;
8895;SDS011;4484;48.928;10.066;2022-10-31T06:33:20;4.10;;;3.07;;
8895;SDS011;4484;48.928;10.066;2022-10-31T06:35:54;4.57;;;2.90;;
8895;SDS011;4484;48.928;10.066;2022-10-31T06:38:22;4.10;;;2.60;;
8895;SDS011;4484;48.928;10.066;2022-10-31T06:40:48;3.57;;;2.70;;
8895;SDS011;4484;48.928;10.066;2022-10-31T06:43:24;3.00;;;2.60;;
8895;SDS011;4484;48.928;10.066;2022-10-31T06:46:16;5.10;;;2.70;;
8895;SDS011;4484;48.928;10.066;2022-10-31T06:49:07;3.20;;;2.60;;
8895;SDS011;4484;48.928;10.066;2022-10-31T06:51:41;4.27;;;3.50;;
8895;SDS011;4484;48.928;10.066;2022-10-31T06:54:08;5.27;;;3.10;;
8895;SDS011;4484;48.928;10.066;2022-10-31T06:56:35;4.73;;;3.40;;
8895;SDS011;4484;48.928;10.066;2022-10-31T06:59:03;5.53;;;2.87;;
8895;SDS011;4484;48.928;10.066;2022-10-31T07:02:02;6.03;;;3.20;;
8895;SDS011;4484;48.928;10.066;2022-10-31T07:04:29;4.27;;;2.93;;
8895;SDS011;4484;48.928;10.066;2022-10-31T07:06:56;3.70;;;2.77;;
8895;SDS011;4484;48.928;10.066;2022-10-31T07:09:22;4.53;;;3.30;;
8895;SDS011;4484;48.928;10.066;2022-10-31T07:11:51;4.73;;;3.37;;
8895;SDS011;4484;48.928;10.066;2022-10-31T07:14:19;7.03;;;3.17;;
8895;SDS011;4484;48.928;10.066;2022-10-31T07:16:49;5.50;;;3.47;;
8895;SDS011;4484;48.928;10.066;2022-10-31T07:19:22;3.60;;;2.70;;
8895;SDS011;4484;48.928;10.066;2022-10-31T07:21:49;3.80;;;2.67;;
8895;SDS011;4484;48.928;10.066;2022-10-31T07:24:16;5.10;;;3.37;;
8895;SDS011;4484;48.928;10.066;2022-10-31T07:27:03;7.97;;;4.57;;
8895;SDS011;4484;48.928;10.066;2022-10-31T07:29:30;10.67;;;4.67;;
8895;SDS011;4484;48.928;10.066;2022-10-31T07:31:57;8.00;;;4.10;;
8895;SDS011;4484;48.928;10.066;2022-10-31T07:34:29;6.90;;;4.23;;
8895;SDS011;4484;48.928;10.066;2022-10-31T07:37:18;10.33;;;5.00;;
8895;SDS011;4484;48.928;10.066;2022-10-31T07:39:45;10.83;;;4.80;;
8895;SDS011;4484;48.928;10.066;2022-10-31T07:42:12;9.30;;;4.57;;
8895;SDS011;4484;48.928;10.066;2022-10-31T07:44:42;10.13;;;5.17;;
8895;SDS011;4484;48.928;10.066;2022-10-31T07:47:29;9.10;;;4.47;;
8895;SDS011;4484;48.928;10.066;2022-10-31T07:50:26;8.23;;;4.37;;
8895;SDS011;4484;48.928;10.066;2022-10-31T07:53:31;8.50;;;4.40;;
8895;SDS011;4484;48.928;10.066;2022-10-31T07:56:08;9.70;;;4.33;;
8895;SDS011;4484;48.928;10.066;2022-10-31T07:58:35;7.30;;;4.00;;
8895;SDS011;4484;48.928;10.066;2022-10-31T08:01:02;9.73;;;3.97;;
8895;SDS011;4484;48.928;10.066;2022-10-31T08:03:38;7.37;;;3.50;;
8895;SDS011;4484;48.928;10.066;2022-10-31T08:06:23;5.20;;;3.30;;
8895;SDS011;4484;48.928;10.066;2022-10-31T08:09:08;5.43;;;3.27;;
8895;SDS011;4484;48.928;10.066;2022-10-31T08:11:35;10.27;;;3.30;;
8895;SDS011;4484;48.928;10.066;2022-10-31T08:14:02;8.30;;;3.63;;
8895;SDS011;4484;48.928;10.066;2022-10-31T08:16:29;6.70;;;3.53;;
8895;SDS011;4484;48.928;10.066;2022-10-31T08:18:59;6.87;;;3.10;;
8895;SDS011;4484;48.928;10.066;2022-10-31T08:21:28;6.43;;;3.70;;
8895;SDS011;4484;48.928;10.066;2022-10-31T08:23:56;8.00;;;3.70;;
8895;SDS011;4484;48.928;10.066;2022-10-31T08:26:24;6.17;;;3.50;;
8895;SDS011;4484;48.928;10.066;2022-10-31T08:28:52;8.07;;;3.67;;
8895;SDS011;4484;48.928;10.066;2022-10-31T08:31:22;8.03;;;4.00;;
8895;SDS011;4484;48.928;10.066;2022-10-31T08:34:21;8.90;;;3.80;;
8895;SDS011;4484;48.928;10.066;2022-10-31T08:37:07;5.53;;;3.07;;
8895;SDS011;4484;48.928;10.066;2022-10-31T08:39:40;6.67;;;3.27;;
8895;SDS011;4484;48.928;10.066;2022-10-31T08:42:07;6.60;;;3.57;;
8895;SDS011;4484;48.928;10.066;2022-10-31T08:44:34;7.40;;;3.67;;
8895;SDS011;4484;48.928;10.066;2022-10-31T08:47:02;9.13;;;4.23;;
8895;SDS011;4484;48.928;10.066;2022-10-31T08:49:32;7.40;;;3.77;;
8895;SDS011;4484;48.928;10.066;2022-10-31T08:51:59;6.83;;;3.50;;
8895;SDS011;4484;48.928;10.066;2022-10-31T08:54:31;7.33;;;3.93;;
8895;SDS011;4484;48.928;10.066;2022-10-31T08:57:16;7.50;;;3.37;;
8895;SDS011;4484;48.928;10.066;2022-10-31T08:59:45;8.30;;;3.67;;
8895;SDS011;4484;48.928;10.066;2022-10-31T09:02:38;6.67;;;3.73;;
8895;SDS011;4484;48.928;10.066;2022-10-31T09:05:05;6.10;;;3.50;;
8895;SDS011;4484;48.928;10.066;2022-10-31T09:07:33;10.40;;;3.20;;
8895;SDS011;4484;48.928;10.066;2022-10-31T09:10:00;8.07;;;3.83;;
8895;SDS011;4484;48.928;10.066;2022-10-31T09:12:30;6.70;;;4.00;;
8895;SDS011;4484;48.928;10.066;2022-10-31T09:15:16;9.57;;;3.53;;
8895;SDS011;4484;48.928;10.066;2022-10-31T09:17:47;5.87;;;3.50;;
8895;SDS011;4484;48.928;10.066;2022-10-31T09:20:21;7.67;;;3.50;;
8895;SDS011;4484;48.928;10.066;2022-10-31T09:22:59;7.67;;;4.10;;
8895;SDS011;4484;48.928;10.066;2022-10-31T09:25:29;6.40;;;4.40;;
8895;SDS011;4484;48.928;10.066;2022-10-31T09:28:17;6.33;;;3.80;;
8895;SDS011;4484;48.928;10.066;2022-10-31T09:30:46;6.97;;;3.90;;
8895;SDS011;4484;48.928;10.066;2022-10-31T09:33:20;7.57;;;4.23;;
8895;SDS011;4484;48.928;10.066;2022-10-31T09:36:03;10.87;;;4.57;;
8895;SDS011;4484;48.928;10.066;2022-10-31T09:38:31;10.10;;;4.47;;
8895;SDS011;4484;48.928;10.066;2022-10-31T09:49:03;24.40;;;11.93;;
8895;SDS011;4484;48.928;10.066;2022-10-31T09:51:53;14.80;;;8.40;;
8895;SDS011;4484;48.928;10.066;2022-10-31T09:54:41;13.20;;;7.77;;
8895;SDS011;4484;48.928;10.066;2022-10-31T09:57:14;19.37;;;8.33;;
8895;SDS011;4484;48.928;10.066;2022-10-31T09:59:46;14.93;;;6.53;;
8895;SDS011;4484;48.928;10.066;2022-10-31T10:02:39;8.77;;;4.50;;
8895;SDS011;4484;48.928;10.066;2022-10-31T10:05:09;10.10;;;5.50;;
8895;SDS011;4484;48.928;10.066;2022-10-31T10:07:51;9.30;;;4.53;;
8895;SDS011;4484;48.928;10.066;2022-10-31T10:25:38;7.32;;;4.43;;
8895;SDS011;4484;48.928;10.066;2022-10-31T10:30:56;9.95;;;4.68;;
8895;SDS011;4484;48.928;10.066;2022-10-31T10:33:30;8.68;;;3.85;;
8895;SDS011;4484;48.928;10.066;2022-10-31T10:36:04;10.88;;;4.75;;
8895;SDS011;4484;48.928;10.066;2022-10-31T10:41:23;9.10;;;4.05;;
8895;SDS011;4484;48.928;10.066;2022-10-31T10:43:59;8.30;;;4.28;;
8895;SDS011;4484;48.928;10.066;2022-10-31T10:49:16;8.57;;;4.90;;
8895;SDS011;4484;48.928;10.066;2022-10-31T10:52:15;13.15;;;4.60;;
8895;SDS011;4484;48.928;10.066;2022-10-31T10:58:09;9.70;;;4.50;;
8895;SDS011;4484;48.928;10.066;2022-10-31T11:00:46;11.23;;;3.97;;
8895;SDS011;4484;48.928;10.066;2022-10-31T11:03:14;9.70;;;4.30;;
8895;SDS011;4484;48.928;10.066;2022-10-31T11:05:47;14.70;;;4.75;;
8895;SDS011;4484;48.928;10.066;2022-10-31T11:08:24;6.65;;;4.28;;
8895;SDS011;4484;48.928;10.066;2022-10-31T11:11:04;8.27;;;4.35;;
8895;SDS011;4484;48.928;10.066;2022-10-31T11:13:37;8.85;;;3.95;;
8895;SDS011;4484;48.928;10.066;2022-10-31T11:16:08;9.05;;;4.53;;
8895;SDS011;4484;48.928;10.066;2022-10-31T11:18:54;9.70;;;4.47;;
8895;SDS011;4484;48.928;10.066;2022-10-31T11:21:43;10.88;;;4.45;;
8895;SDS011;4484;48.928;10.066;2022-10-31T11:26:46;9.45;;;4.45;;
8895;SDS011;4484;48.928;10.066;2022-10-31T11:29:15;8.27;;;4.10;;
8895;SDS011;4484;48.928;10.066;2022-10-31T11:31:43;6.90;;;3.83;;
8895;SDS011;4484;48.928;10.066;2022-10-31T11:34:18;8.35;;;4.40;;
8895;SDS011;4484;48.928;10.066;2022-10-31T11:37:01;8.38;;;4.28;;
8895;SDS011;4484;48.928;10.066;2022-10-31T11:39:40;8.10;;;3.65;;
8895;SDS011;4484;48.928;10.066;2022-10-31T11:42:09;15.45;;;4.30;;
8895;SDS011;4484;48.928;10.066;2022-10-31T11:44:36;12.48;;;4.25;;
8895;SDS011;4484;48.928;10.066;2022-10-31T11:47:13;12.02;;;4.57;;
8895;SDS011;4484;48.928;10.066;2022-10-31T11:49:44;10.65;;;4.75;;
8895;SDS011;4484;48.928;10.066;2022-10-31T11:52:20;7.88;;;4.40;;
8895;SDS011;4484;48.928;10.066;2022-10-31T11:57:29;9.57;;;4.50;;
8895;SDS011;4484;48.928;10.066;2022-10-31T11:59:57;6.43;;;4.65;;
8895;SDS011;4484;48.928;10.066;2022-10-31T12:02:25;13.65;;;4.78;;
8895;SDS011;4484;48.928;10.066;2022-10-31T12:07:34;16.90;;;6.10;;
8895;SDS011;4484;48.928;10.066;2022-10-31T12:10:02;10.70;;;5.55;;
8895;SDS011;4484;48.928;10.066;2022-10-31T12:13:11;13.32;;;5.80;;
8895;SDS011;4484;48.928;10.066;2022-10-31T12:35:34;12.13;;;5.18;;
8895;SDS011;4484;48.928;10.066;2022-10-31T12:55:06;16.15;;;6.15;;
8895;SDS011;4484;48.928;10.066;2022-10-31T13:00:18;15.75;;;6.35;;
8895;SDS011;4484;48.928;10.066;2022-10-31T13:02:56;17.10;;;6.35;;
8895;SDS011;4484;48.928;10.066;2022-10-31T13:05:45;10.60;;;5.70;;
8895;SDS011;4484;48.928;10.066;2022-10-31T13:08:16;13.80;;;6.05;;
8895;SDS011;4484;48.928;10.066;2022-10-31T13:10:45;14.00;;;6.03;;
8895;SDS011;4484;48.928;10.066;2022-10-31T13:13:23;12.65;;;5.55;;
8895;SDS011;4484;48.928;10.066;2022-10-31T13:16:22;12.80;;;5.63;;
8895;SDS011;4484;48.928;10.066;2022-10-31T13:18:56;15.60;;;5.30;;
8895;SDS011;4484;48.928;10.066;2022-10-31T13:25:40;11.40;;;5.28;;
8895;SDS011;4484;48.928;10.066;2022-10-31T13:27:40;14.57;;;5.93;;
8895;SDS011;4484;48.928;10.066;2022-10-31T13:30:24;12.63;;;6.07;;
8895;SDS011;4484;48.928;10.066;2022-10-31T13:36:09;12.05;;;5.70;;
8895;SDS011;4484;48.928;10.066;2022-10-31T13:38:59;13.32;;;7.15;;
8895;SDS011;4484;48.928;10.066;2022-10-31T13:41:51;12.18;;;6.07;;
8895;SDS011;4484;48.928;10.066;2022-10-31T13:44:26;16.75;;;6.90;;
8895;SDS011;4484;48.928;10.066;2022-10-31T13:46:59;19.70;;;6.97;;
8895;SDS011;4484;48.928;10.066;2022-10-31T13:52:10;11.73;;;6.63;;
8895;SDS011;4484;48.928;10.066;2022-10-31T13:54:39;16.42;;;6.43;;
8895;SDS011;4484;48.928;10.066;2022-10-31T13:57:14;15.23;;;7.70;;
8895;SDS011;4484;48.928;10.066;2022-10-31T14:00:44;11.70;;;5.72;;
8895;SDS011;4484;48.928;10.066;2022-10-31T14:02:56;16.88;;;7.70;;
8895;SDS011;4484;48.928;10.066;2022-10-31T14:05:30;18.13;;;7.40;;
8895;SDS011;4484;48.928;10.066;2022-10-31T14:08:03;17.15;;;8.23;;
8895;SDS011;4484;48.928;10.066;2022-10-31T14:10:36;18.57;;;8.40;;
8895;SDS011;4484;48.928;10.066;2022-10-31T14:13:06;19.20;;;8.97;;
8895;SDS011;4484;48.928;10.066;2022-10-31T14:15:40;16.20;;;9.07;;
8895;SDS011;4484;48.928;10.066;2022-10-31T14:18:25;16.47;;;9.00;;
8895;SDS011;4484;48.928;10.066;2022-10-31T14:20:57;12.13;;;8.30;;
8895;SDS011;4484;48.928;10.066;2022-10-31T14:28:57;35.17;;;11.17;;
8895;SDS011;4484;48.928;10.066;2022-10-31T14:45:14;25.50;;;10.53;;
8895;SDS011;4484;48.928;10.066;2022-10-31T14:48:18;17.50;;;9.53;;
8895;SDS011;4484;48.928;10.066;2022-10-31T14:55:51;19.70;;;10.40;;
8895;SDS011;4484;48.928;10.066;2022-10-31T14:58:21;14.90;;;10.23;;
8895;SDS011;4484;48.928;10.066;2022-10-31T15:00:55;24.97;;;10.67;;
8895;SDS011;4484;48.928;10.066;2022-10-31T15:03:27;19.73;;;9.80;;
8895;SDS011;4484;48.928;10.066;2022-10-31T15:06:00;12.50;;;8.93;;
8895;SDS011;4484;48.928;10.066;2022-10-31T15:08:52;22.70;;;12.03;;
8895;SDS011;4484;48.928;10.066;2022-10-31T15:13:53;16.93;;;10.60;;
8895;SDS011;4484;48.928;10.066;2022-10-31T15:16:34;23.43;;;11.60;;
8895;SDS011;4484;48.928;10.066;2022-10-31T15:19:09;22.87;;;10.57;;
8895;SDS011;4484;48.928;10.066;2022-10-31T15:24:14;20.60;;;10.53;;
8895;SDS011;4484;48.928;10.066;2022-10-31T15:26:46;18.57;;;10.23;;
8895;SDS011;4484;48.928;10.066;2022-10-31T15:29:15;10.60;;;7.70;;
8895;SDS011;4484;48.928;10.066;2022-10-31T15:31:56;10.47;;;8.40;;
8895;SDS011;4484;48.928;10.066;2022-10-31T15:37:19;11.80;;;8.33;;
8895;SDS011;4484;48.928;10.066;2022-10-31T15:39:48;14.60;;;9.03;;
8895;SDS011;4484;48.928;10.066;2022-10-31T15:47:38;79.57;;;12.63;;
8895;SDS011;4484;48.928;10.066;2022-10-31T15:50:33;13.10;;;8.00;;
8895;SDS011;4484;48.928;10.066;2022-10-31T15:55:47;15.27;;;8.50;;
8895;SDS011;4484;48.928;10.066;2022-10-31T15:58:18;12.27;;;7.60;;
8895;SDS011;4484;48.928;10.066;2022-10-31T16:04:18;22.10;;;12.70;;
8895;SDS011;4484;48.928;10.066;2022-10-31T16:09:55;18.53;;;9.83;;
8895;SDS011;4484;48.928;10.066;2022-10-31T16:12:29;14.50;;;9.17;;
8895;SDS011;4484;48.928;10.066;2022-10-31T16:15:04;20.70;;;10.67;;
8895;SDS011;4484;48.928;10.066;2022-10-31T16:17:42;14.30;;;8.67;;
8895;SDS011;4484;48.928;10.066;2022-10-31T16:20:32;11.23;;;8.13;;
8895;SDS011;4484;48.928;10.066;2022-10-31T16:23:05;13.10;;;10.10;;
8895;SDS011;4484;48.928;10.066;2022-10-31T16:25:36;11.63;;;9.10;;
8895;SDS011;4484;48.928;10.066;2022-10-31T16:28:15;16.63;;;10.07;;
8895;SDS011;4484;48.928;10.066;2022-10-31T16:30:55;25.97;;;16.47;;
8895;SDS011;4484;48.928;10.066;2022-10-31T16:33:31;44.90;;;29.90;;
8895;SDS011;4484;48.928;10.066;2022-10-31T16:39:01;24.07;;;16.13;;
8895;SDS011;4484;48.928;10.066;2022-10-31T16:41:29;21.87;;;14.13;;
8895;SDS011;4484;48.928;10.066;2022-10-31T16:43:56;15.70;;;11.70;;
8895;SDS011;4484;48.928;10.066;2022-10-31T16:46:25;15.37;;;10.87;;
8895;SDS011;4484;48.928;10.066;2022-10-31T16:48:54;18.30;;;11.43;;
8895;SDS011;4484;48.928;10.066;2022-10-31T16:51:21;15.23;;;10.53;;
8895;SDS011;4484;48.928;10.066;2022-10-31T16:53:51;20.57;;;11.17;;
8895;SDS011;4484;48.928;10.066;2022-10-31T16:56:24;13.17;;;9.90;;
8895;SDS011;4484;48.928;10.066;2022-10-31T16:58:55;10.53;;;8.07;;
8895;SDS011;4484;48.928;10.066;2022-10-31T17:01:22;13.27;;;9.77;;
8895;SDS011;4484;48.928;10.066;2022-10-31T17:03:50;12.27;;;8.23;;
8895;SDS011;4484;48.928;10.066;2022-10-31T17:06:17;15.13;;;9.53;;
8895;SDS011;4484;48.928;10.066;2022-10-31T17:08:45;12.93;;;8.50;;
8895;SDS011;4484;48.928;10.066;2022-10-31T17:11:19;12.00;;;8.60;;
8895;SDS011;4484;48.928;10.066;2022-10-31T17:13:49;11.83;;;8.07;;
8895;SDS011;4484;48.928;10.066;2022-10-31T17:16:16;10.13;;;7.70;;
8895;SDS011;4484;48.928;10.066;2022-10-31T17:18:43;12.57;;;8.90;;
8895;SDS011;4484;48.928;10.066;2022-10-31T17:21:21;9.27;;;7.47;;
8895;SDS011;4484;48.928;10.066;2022-10-31T17:23:50;8.97;;;7.43;;
8895;SDS011;4484;48.928;10.066;2022-10-31T17:26:17;8.47;;;6.80;;
8895;SDS011;4484;48.928;10.066;2022-10-31T17:28:44;11.57;;;7.77;;
8895;SDS011;4484;48.928;10.066;2022-10-31T17:31:19;9.97;;;6.60;;
8895;SDS011;4484;48.928;10.066;2022-10-31T17:33:49;10.10;;;7.43;;
8895;SDS011;4484;48.928;10.066;2022-10-31T17:36:16;10.20;;;7.93;;
8895;SDS011;4484;48.928;10.066;2022-10-31T17:38:43;8.67;;;7.17;;
8895;SDS011;4484;48.928;10.066;2022-10-31T17:41:10;10.67;;;7.80;;
8895;SDS011;4484;48.928;10.066;2022-10-31T17:43:37;10.43;;;7.57;;
8895;SDS011;4484;48.928;10.066;2022-10-31T17:46:04;9.97;;;7.10;;
8895;SDS011;4484;48.928;10.066;2022-10-31T17:48:32;10.73;;;7.77;;
8895;SDS011;4484;48.928;10.066;2022-10-31T17:51:04;12.40;;;8.67;;
8895;SDS011;4484;48.928;10.066;2022-10-31T17:53:32;17.37;;;11.00;;
8895;SDS011;4484;48.928;10.066;2022-10-31T17:56:01;11.47;;;8.73;;
8895;SDS011;4484;48.928;10.066;2022-10-31T17:58:29;16.70;;;10.17;;
8895;SDS011;4484;48.928;10.066;2022-10-31T18:00:57;13.67;;;9.87;;
8895;SDS011;4484;48.928;10.066;2022-10-31T18:03:25;13.63;;;9.67;;
8895;SDS011;4484;48.928;10.066;2022-10-31T18:05:53;13.83;;;9.97;;
8895;SDS011;4484;48.928;10.066;2022-10-31T18:08:25;15.20;;;10.83;;
8895;SDS011;4484;48.928;10.066;2022-10-31T18:10:53;12.87;;;9.53;;
8895;SDS011;4484;48.928;10.066;2022-10-31T18:13:20;14.43;;;10.13;;
8895;SDS011;4484;48.928;10.066;2022-10-31T18:15:48;13.70;;;10.00;;
8895;SDS011;4484;48.928;10.066;2022-10-31T18:18:15;18.37;;;13.97;;
8895;SDS011;4484;48.928;10.066;2022-10-31T18:20:42;20.37;;;13.20;;
8895;SDS011;4484;48.928;10.066;2022-10-31T18:23:09;13.27;;;10.80;;
8895;SDS011;4484;48.928;10.066;2022-10-31T18:25:36;14.97;;;11.00;;
8895;SDS011;4484;48.928;10.066;2022-10-31T18:28:04;16.57;;;11.57;;